Time;durP1;ratioP1;P1;durP2;ratioP2;P2;SDS_P1;SDS_P2;PMS_P1;PMS_P2;Temp;Humidity;BMP_temperature;BMP_pressure;BME280_temperature;BME280_humidity;BME280_pressure;Samples;Min_cycle;Max_cycle;Signal;HPM_P1;HPM_P2
2021/06/18 00:01:10;;;;;;;10.03;6.10;;;23.80;99.90;;;;;;12383698;28;20097;-40
2021/06/18 00:07:13;;;;;;;9.48;5.70;;;23.60;99.90;;;;;;12384623;28;20050;-40
2021/06/18 00:13:15;;;;;;;10.93;5.25;;;23.50;99.90;;;;;;12382696;28;20178;-40
2021/06/18 00:19:16;;;;;;;9.10;4.78;;;23.50;99.90;;;;;;12378710;28;20061;-41
2021/06/18 00:25:18;;;;;;;9.95;5.72;;;23.60;99.90;;;;;;12379227;28;20054;-39
2021/06/18 00:31:20;;;;;;;8.27;4.80;;;23.30;99.90;;;;;;12383373;28;20108;-40
2021/06/18 00:37:22;;;;;;;6.95;4.45;;;23.30;99.90;;;;;;12379262;28;20057;-40
2021/06/18 00:43:24;;;;;;;8.95;5.45;;;23.30;99.90;;;;;;12383444;28;20145;-41
2021/06/18 00:49:26;;;;;;;8.98;4.75;;;23.10;99.90;;;;;;12391661;28;20053;-40
2021/06/18 00:55:29;;;;;;;7.87;5.23;;;23.10;99.90;;;;;;12390752;28;20054;-40
2021/06/18 01:01:31;;;;;;;10.47;5.50;;;23.10;99.90;;;;;;12390140;28;20046;-41
2021/06/18 01:07:41;;;;;;;9.52;5.88;;;22.90;99.90;;;;;;12391528;28;20057;-40
2021/06/18 01:14:30;;;;;;;9.45;5.20;;;23.00;99.90;;;;;;12382324;28;21556;-41
2021/06/18 01:21:11;;;;;;;6.97;4.95;;;23.00;99.90;;;;;;12391090;28;20054;-39
2021/06/18 01:27:15;;;;;;;8.70;5.72;;;22.80;99.90;;;;;;12389410;28;20100;-40
2021/06/18 01:33:22;;;;;;;8.88;5.28;;;22.80;99.90;;;;;;12390080;28;20099;-40
2021/06/18 01:39:25;;;;;;;8.75;5.07;;;22.80;99.90;;;;;;12390666;28;20061;-40
2021/06/18 01:45:28;;;;;;;7.65;4.93;;;22.80;99.90;;;;;;12393405;28;20681;-40
2021/06/18 01:51:32;;;;;;;10.07;5.05;;;22.80;99.90;;;;;;12390125;28;20107;-40
2021/06/18 01:57:37;;;;;;;7.88;5.35;;;22.70;99.90;;;;;;12386798;28;20157;-40
2021/06/18 02:03:39;;;;;;;9.10;5.60;;;22.60;99.90;;;;;;12394428;28;20107;-42
2021/06/18 02:09:45;;;;;;;7.23;5.20;;;22.40;99.90;;;;;;12390551;28;20115;-42
2021/06/18 02:15:48;;;;;;;8.45;5.70;;;22.40;99.90;;;;;;12382466;28;20421;-40
2021/06/18 02:21:53;;;;;;;12.57;5.18;;;22.30;99.90;;;;;;12390594;28;20046;-40
2021/06/18 02:27:55;;;;;;;8.88;5.35;;;22.30;99.90;;;;;;12386059;28;20046;-40
2021/06/18 02:33:57;;;;;;;9.18;7.30;;;22.30;99.90;;;;;;12392288;28;20054;-40
2021/06/18 02:39:59;;;;;;;9.55;6.85;;;22.30;99.90;;;;;;12392886;28;20810;-40
2021/06/18 02:46:00;;;;;;;11.48;7.40;;;22.10;99.90;;;;;;12435069;28;20045;-41
2021/06/18 02:52:07;;;;;;;9.70;6.95;;;22.00;99.90;;;;;;12439907;28;20046;-40
2021/06/18 02:58:20;;;;;;;10.30;6.93;;;22.00;99.90;;;;;;12437788;28;20057;-40
2021/06/18 03:04:26;;;;;;;11.90;7.60;;;21.90;99.90;;;;;;12436485;28;20049;-42
2021/06/18 03:10:36;;;;;;;10.55;8.15;;;21.90;99.90;;;;;;12432486;28;20050;-39
2021/06/18 03:16:41;;;;;;;12.70;8.32;;;22.00;99.90;;;;;;12439578;28;20553;-40
2021/06/18 03:22:47;;;;;;;11.38;7.93;;;22.00;99.90;;;;;;12439777;28;20528;-42
2021/06/18 03:28:49;;;;;;;10.93;8.00;;;22.00;99.90;;;;;;12440352;28;20054;-41
2021/06/18 03:34:52;;;;;;;13.13;7.35;;;22.00;99.90;;;;;;12435121;28;20094;-40
2021/06/18 03:40:55;;;;;;;11.50;7.18;;;21.80;99.90;;;;;;12439934;28;20072;-41
2021/06/18 03:46:57;;;;;;;11.47;7.00;;;21.70;99.90;;;;;;12433176;28;20065;-40
2021/06/18 03:53:01;;;;;;;13.60;7.10;;;21.70;99.90;;;;;;12427946;28;20563;-42
2021/06/18 03:59:03;;;;;;;;;;;21.70;99.90;;;;;;12431854;28;21868;-39
2021/06/18 04:05:06;;;;;;;7.95;5.63;;;21.70;99.90;;;;;;12427797;28;19929;-41
2021/06/18 04:11:10;;;;;;;8.95;5.70;;;21.90;99.90;;;;;;12432730;28;20045;-41
2021/06/18 04:17:11;;;;;;;7.45;5.50;;;22.10;99.90;;;;;;12426675;28;20054;-41
2021/06/18 04:23:13;;;;;;;10.32;6.00;;;22.10;99.90;;;;;;12441789;28;20519;-40
2021/06/18 04:29:15;;;;;;;11.25;5.43;;;22.10;99.90;;;;;;12446475;28;20054;-40
2021/06/18 04:35:17;;;;;;;8.65;5.63;;;22.10;99.90;;;;;;12444169;28;20050;-40
2021/06/18 04:41:19;;;;;;;8.13;6.40;;;22.10;99.90;;;;;;12447083;28;20050;-40
2021/06/18 04:47:21;;;;;;;8.27;6.45;;;22.10;99.90;;;;;;12439201;28;20088;-40
2021/06/18 04:53:23;;;;;;;10.55;6.75;;;22.20;99.90;;;;;;12438656;28;20045;-40
2021/06/18 04:59:25;;;;;;;8.65;6.82;;;22.20;99.90;;;;;;12440665;28;20172;-41
2021/06/18 05:05:27;;;;;;;10.95;7.55;;;22.30;99.90;;;;;;12437057;28;20062;-40
2021/06/18 05:11:29;;;;;;;12.80;7.03;;;22.30;99.90;;;;;;12430281;28;20096;-40
2021/06/18 05:17:31;;;;;;;10.23;6.07;;;22.30;99.90;;;;;;12384813;28;20050;-40
2021/06/18 05:23:33;;;;;;;8.65;6.32;;;22.40;99.90;;;;;;12386029;28;20336;-41
2021/06/18 05:29:36;;;;;;;10.48;6.65;;;22.40;99.90;;;;;;12392723;28;20077;-40
2021/06/18 05:35:41;;;;;;;9.07;5.80;;;22.30;99.90;;;;;;12377462;28;20756;-40
2021/06/18 05:41:43;;;;;;;7.97;6.05;;;22.40;99.90;;;;;;12380094;28;20839;-40
2021/06/18 05:47:45;;;;;;;10.25;5.90;;;22.60;99.90;;;;;;12387262;28;20050;-41
2021/06/18 05:53:47;;;;;;;10.52;5.72;;;22.40;99.90;;;;;;12386531;28;20566;-40
2021/06/18 05:59:49;;;;;;;7.75;5.80;;;22.50;99.90;;;;;;12384344;28;20504;-41
2021/06/18 06:05:51;;;;;;;9.82;5.55;;;22.60;99.90;;;;;;12388118;28;20473;-40
2021/06/18 06:11:53;;;;;;;8.05;5.43;;;22.70;99.90;;;;;;12376623;28;20072;-41
2021/06/18 06:17:55;;;;;;;10.50;6.13;;;22.90;99.90;;;;;;12381526;28;20153;-41
2021/06/18 06:23:57;;;;;;;8.57;5.78;;;23.10;99.90;;;;;;12382943;28;20050;-40
2021/06/18 06:29:58;;;;;;;8.05;5.78;;;23.10;99.90;;;;;;12388294;28;20050;-42
2021/06/18 06:36:00;;;;;;;11.15;6.45;;;23.20;99.90;;;;;;12441126;28;20241;-41
2021/06/18 06:42:04;;;;;;;;;;;23.20;99.90;;;;;;12458219;28;20478;-40
2021/06/18 06:48:07;;;;;;;11.20;6.22;;;23.40;99.90;;;;;;12451289;28;20003;-40
2021/06/18 06:54:12;;;;;;;9.17;6.50;;;23.50;99.90;;;;;;12449528;28;20442;-40
2021/06/18 07:00:14;;;;;;;12.18;6.13;;;23.60;99.90;;;;;;12449401;28;20156;-40
2021/06/18 07:06:16;;;;;;;10.60;6.13;;;23.70;99.90;;;;;;12451016;28;20144;-42
2021/06/18 07:12:19;;;;;;;10.82;6.20;;;23.70;99.90;;;;;;12446563;28;20053;-40
2021/06/18 07:18:21;;;;;;;10.57;6.72;;;23.70;99.90;;;;;;12452477;28;20152;-41
2021/06/18 07:24:23;;;;;;;8.90;5.63;;;24.00;99.90;;;;;;12445333;28;20530;-40
2021/06/18 07:30:25;;;;;;;8.57;5.47;;;24.00;99.90;;;;;;12433561;28;20045;-41
2021/06/18 07:36:27;;;;;;;8.95;6.13;;;24.00;99.90;;;;;;12444110;28;20096;-40
2021/06/18 07:42:28;;;;;;;8.75;6.53;;;24.10;99.90;;;;;;12431042;28;20064;-40
2021/06/18 07:48:31;;;;;;;9.32;6.22;;;24.20;99.90;;;;;;12427364;28;20053;-42
2021/06/18 07:54:32;;;;;;;8.88;5.57;;;24.30;99.90;;;;;;12429157;28;20061;-43
2021/06/18 08:00:34;;;;;;;8.05;6.00;;;24.50;99.90;;;;;;12432892;28;20841;-40
2021/06/18 08:06:36;;;;;;;6.32;5.28;;;24.70;99.90;;;;;;12433724;28;20080;-40
2021/06/18 08:12:38;;;;;;;12.77;6.75;;;24.80;99.90;;;;;;12434800;28;20050;-42
2021/06/18 08:18:40;;;;;;;7.72;5.38;;;24.90;99.90;;;;;;12426057;28;20052;-42
2021/06/18 08:24:43;;;;;;;7.13;6.03;;;25.00;99.90;;;;;;12428154;28;20053;-40
2021/06/18 08:30:45;;;;;;;10.35;6.50;;;25.20;99.90;;;;;;12428889;28;20095;-40
2021/06/18 08:36:52;;;;;;;10.80;5.93;;;25.40;99.90;;;;;;12431931;28;20127;-40
2021/06/18 08:42:54;;;;;;;10.93;6.60;;;25.60;99.90;;;;;;12430969;28;20104;-40
2021/06/18 08:48:56;;;;;;;10.60;6.60;;;25.60;99.90;;;;;;12433415;28;20742;-41
2021/06/18 08:54:59;;;;;;;10.30;6.77;;;25.80;99.90;;;;;;12433248;28;20049;-40
2021/06/18 09:01:01;;;;;;;11.95;5.63;;;26.00;99.90;;;;;;12435088;28;20053;-41
2021/06/18 09:07:03;;;;;;;12.80;6.30;;;26.20;99.90;;;;;;12429595;28;20061;-40
2021/06/18 09:13:10;;;;;;;11.77;6.57;;;26.40;99.90;;;;;;12439558;28;20083;-40
2021/06/18 09:19:41;;;;;;;7.35;5.97;;;26.70;99.90;;;;;;12440953;28;20137;-41
2021/06/18 09:25:43;;;;;;;10.30;6.20;;;27.10;99.90;;;;;;12439070;28;20345;-40
2021/06/18 09:32:05;;;;;;;11.57;6.38;;;27.50;99.90;;;;;;12444819;28;20057;-40
2021/06/18 09:38:08;;;;;;;10.93;6.30;;;27.60;99.90;;;;;;12444645;28;20430;-40
2021/06/18 09:44:16;;;;;;;14.27;7.72;;;27.60;99.90;;;;;;12445422;28;20157;-40
2021/06/18 09:50:25;;;;;;;11.32;6.55;;;27.90;99.90;;;;;;12443788;28;20057;-42
2021/06/18 09:56:27;;;;;;;10.65;6.00;;;27.80;99.90;;;;;;12440187;28;20852;-40
2021/06/18 10:02:37;;;;;;;16.23;7.07;;;28.00;99.90;;;;;;12441495;28;20056;-42
2021/06/18 10:08:39;;;;;;;11.30;7.10;;;28.20;99.90;;;;;;12444260;28;20120;-40
2021/06/18 10:14:43;;;;;;;8.93;7.03;;;28.40;99.90;;;;;;12443826;28;20123;-40
2021/06/18 10:20:44;;;;;;;13.10;6.88;;;28.80;99.90;;;;;;12437335;28;20124;-40
2021/06/18 10:26:52;;;;;;;12.67;7.93;;;28.90;99.90;;;;;;12435694;28;20164;-41
2021/06/18 10:32:55;;;;;;;10.32;6.28;;;29.20;99.90;;;;;;12439227;28;20042;-40
2021/06/18 10:39:01;;;;;;;11.82;6.60;;;29.30;99.90;;;;;;12439765;28;20593;-40
2021/06/18 10:45:04;;;;;;;10.15;7.20;;;29.30;99.90;;;;;;12441769;28;20057;-41
2021/06/18 10:51:26;;;;;;;15.88;7.50;;;29.50;99.90;;;;;;12442282;28;20042;-41
2021/06/18 10:57:29;;;;;;;15.87;8.57;;;29.70;99.90;;;;;;12438059;28;20254;-40
2021/06/18 11:03:57;;;;;;;10.23;7.78;;;29.90;99.90;;;;;;12438094;28;20124;-41
2021/06/18 11:10:27;;;;;;;11.27;7.30;;;29.90;99.90;;;;;;12442977;28;20217;-40
2021/06/18 11:16:37;;;;;;;11.40;7.43;;;30.50;99.90;;;;;;12441317;28;20386;-42
2021/06/18 11:22:51;;;;;;;11.00;6.55;;;30.80;99.90;;;;;;12435289;28;20045;-40
2021/06/18 11:28:53;;;;;;;11.98;8.10;;;31.10;99.90;;;;;;12441684;28;20064;-41
2021/06/18 11:34:55;;;;;;;;;;;30.70;99.90;;;;;;12441043;28;20107;-40
2021/06/18 11:40:59;;;;;;;12.27;7.17;;;31.20;99.90;;;;;;12438093;28;19929;-41
2021/06/18 11:47:02;;;;;;;9.52;6.15;;;31.40;99.90;;;;;;12431727;28;20044;-41
2021/06/18 11:53:04;;;;;;;10.40;6.75;;;31.50;99.90;;;;;;12444571;28;20053;-40
2021/06/18 11:59:12;;;;;;;10.52;6.85;;;31.90;99.90;;;;;;12434746;28;20099;-42
2021/06/18 12:05:17;;;;;;;11.57;6.95;;;32.00;99.90;;;;;;12437264;28;20144;-41
2021/06/18 12:11:20;;;;;;;9.90;8.27;;;31.90;99.90;;;;;;12437378;28;20056;-41
2021/06/18 12:17:22;;;;;;;11.13;7.65;;;31.50;99.90;;;;;;12432585;28;20095;-40
2021/06/18 12:23:24;;;;;;;10.50;7.65;;;31.80;99.90;;;;;;12438729;28;20054;-40
2021/06/18 12:29:27;;;;;;;11.88;7.40;;;32.10;99.90;;;;;;12440552;28;20567;-41
2021/06/18 12:35:41;;;;;;;9.70;7.35;;;32.40;99.90;;;;;;12435060;28;20052;-41
2021/06/18 12:41:49;;;;;;;11.77;7.10;;;32.30;99.90;;;;;;12441108;28;21534;-42
2021/06/18 12:48:18;;;;;;;10.00;7.50;;;32.30;99.90;;;;;;12447800;28;20449;-41
2021/06/18 12:54:31;;;;;;;13.32;8.38;;;32.50;99.90;;;;;;12445784;28;20057;-42
2021/06/18 13:00:41;;;;;;;;;;;31.50;99.90;;;;;;12446499;28;20046;-41
2021/06/18 13:06:50;;;;;;;13.85;8.88;;;30.60;99.90;;;;;;12446158;28;20451;-41
2021/06/18 13:12:55;;;;;;;16.92;9.07;;;30.00;99.90;;;;;;12446398;28;20164;-41
2021/06/18 13:18:58;;;;;;;11.90;8.82;;;29.20;99.90;;;;;;12439813;28;20060;-42
2021/06/18 13:25:10;;;;;;;14.45;9.48;;;28.80;99.90;;;;;;12442796;28;20128;-41
2021/06/18 13:31:17;;;;;;;12.18;9.50;;;28.40;99.90;;;;;;12445120;28;20058;-43
2021/06/18 13:37:23;;;;;;;15.68;9.60;;;28.10;99.90;;;;;;12445728;28;20048;-40
2021/06/18 13:43:25;;;;;;;11.95;9.75;;;27.80;99.90;;;;;;12445049;28;20094;-42
2021/06/18 13:49:27;;;;;;;15.00;9.80;;;27.50;99.90;;;;;;12443848;28;20180;-43
2021/06/18 13:55:29;;;;;;;11.43;10.13;;;27.40;99.90;;;;;;12442882;28;20857;-42
2021/06/18 14:01:35;;;;;;;12.10;10.48;;;27.30;99.90;;;;;;12442634;28;20045;-41
2021/06/18 14:07:37;;;;;;;16.40;11.05;;;27.30;99.90;;;;;;12444397;28;20081;-40
2021/06/18 14:13:39;;;;;;;17.20;11.10;;;27.20;99.90;;;;;;12443455;28;20049;-42
2021/06/18 14:19:42;;;;;;;15.27;10.40;;;27.20;99.90;;;;;;12437799;28;20095;-40
2021/06/18 14:25:47;;;;;;;;;;;27.00;99.90;;;;;;12443315;28;20096;-40
2021/06/18 14:31:50;;;;;;;16.88;11.27;;;27.30;99.90;;;;;;12437834;28;19933;-41
2021/06/18 14:37:52;;;;;;;17.05;10.95;;;27.20;99.90;;;;;;12440911;28;20037;-41
2021/06/18 14:43:55;;;;;;;13.20;10.38;;;26.90;99.90;;;;;;12450542;28;20050;-40
2021/06/18 14:49:57;;;;;;;20.13;11.57;;;26.90;99.90;;;;;;12449043;28;20049;-42
2021/06/18 14:55:58;;;;;;;20.23;11.65;;;26.90;99.90;;;;;;12438191;28;20058;-40
2021/06/18 15:02:01;;;;;;;16.52;11.88;;;26.80;99.90;;;;;;12437561;28;20567;-41
2021/06/18 15:08:03;;;;;;;12.77;10.93;;;26.70;99.90;;;;;;12444364;28;20093;-40
2021/06/18 15:14:05;;;;;;;16.20;11.23;;;26.60;99.90;;;;;;12441906;28;20511;-42
2021/06/18 15:20:08;;;;;;;20.43;11.87;;;26.60;99.90;;;;;;12442785;28;20144;-41
2021/06/18 15:26:10;;;;;;;17.08;12.30;;;26.60;99.90;;;;;;12444927;28;20057;-40
2021/06/18 15:32:13;;;;;;;24.25;12.82;;;26.50;99.90;;;;;;12439548;28;20153;-41
2021/06/18 15:38:14;;;;;;;14.87;10.90;;;26.30;99.90;;;;;;12442914;28;20142;-41
2021/06/18 15:44:18;;;;;;;13.87;12.33;;;26.40;99.90;;;;;;12440113;28;20414;-40
2021/06/18 15:50:22;;;;;;;16.15;12.50;;;26.40;99.90;;;;;;12440584;28;20053;-40
2021/06/18 15:56:24;;;;;;;13.90;12.10;;;26.50;99.90;;;;;;12438406;28;20064;-42
2021/06/18 16:02:26;;;;;;;15.90;11.83;;;26.60;99.90;;;;;;12437596;28;20491;-40
2021/06/18 16:08:29;;;;;;;17.50;12.13;;;26.70;99.90;;;;;;12444055;28;20053;-40
2021/06/18 16:14:32;;;;;;;16.00;11.75;;;26.80;99.90;;;;;;12446064;28;20058;-40
2021/06/18 16:20:34;;;;;;;15.85;11.55;;;26.90;99.90;;;;;;12445107;28;20070;-40
2021/06/18 16:26:36;;;;;;;16.93;11.17;;;27.20;99.90;;;;;;12453015;28;20048;-41
2021/06/18 16:32:38;;;;;;;12.25;10.18;;;27.90;99.90;;;;;;12425712;28;20109;-40
2021/06/18 16:38:40;;;;;;;12.43;10.35;;;28.20;99.90;;;;;;12399171;28;20078;-41
2021/06/18 16:44:41;;;;;;;17.47;9.47;;;29.00;99.90;;;;;;12395851;28;20042;-42
2021/06/18 16:50:45;;;;;;;12.05;10.15;;;29.40;99.90;;;;;;12398242;28;20046;-41
2021/06/18 16:56:47;;;;;;;14.43;9.82;;;29.00;99.90;;;;;;12399165;28;20655;-41
2021/06/18 17:02:49;;;;;;;14.63;10.73;;;29.30;99.90;;;;;;12399861;28;20053;-41
2021/06/18 17:08:52;;;;;;;14.13;9.55;;;28.90;99.90;;;;;;12400883;28;20156;-40
2021/06/18 17:14:55;;;;;;;12.65;9.60;;;28.60;99.90;;;;;;12395515;28;20141;-42
2021/06/18 17:20:59;;;;;;;13.75;8.45;;;28.90;99.90;;;;;;12394357;28;20475;-40
2021/06/18 17:27:01;;;;;;;9.52;7.43;;;28.90;99.90;;;;;;12394640;28;20050;-41
2021/06/18 17:33:03;;;;;;;;;;;29.20;99.90;;;;;;12388188;28;20069;-41
2021/06/18 17:39:06;;;;;;;12.25;6.70;;;29.30;99.90;;;;;;12388351;28;19980;-43
2021/06/18 17:45:08;;;;;;;13.75;7.40;;;28.90;99.90;;;;;;12391847;28;20050;-40
2021/06/18 17:51:11;;;;;;;12.18;6.70;;;28.50;99.90;;;;;;12393034;28;20099;-40
2021/06/18 17:57:12;;;;;;;9.30;6.95;;;28.20;99.90;;;;;;12398109;28;20054;-41
2021/06/18 18:03:15;;;;;;;9.97;6.90;;;28.60;99.90;;;;;;12391295;28;20088;-40
2021/06/18 18:09:17;;;;;;;16.52;6.70;;;28.90;99.90;;;;;;12399025;28;20304;-42
2021/06/18 18:15:19;;;;;;;10.43;7.20;;;28.80;99.90;;;;;;12387621;28;20050;-41
2021/06/18 18:21:20;;;;;;;10.20;7.50;;;28.80;99.90;;;;;;12384766;28;20141;-40
2021/06/18 18:27:22;;;;;;;12.23;6.87;;;28.40;99.90;;;;;;12391951;28;20141;-40
2021/06/18 18:33:24;;;;;;;13.67;8.07;;;27.70;99.90;;;;;;12396267;28;20149;-40
2021/06/18 18:39:26;;;;;;;13.30;8.38;;;27.50;99.90;;;;;;12391838;28;20042;-41
2021/06/18 18:45:28;;;;;;;14.90;8.27;;;27.20;99.90;;;;;;12391637;28;20803;-41
2021/06/18 18:51:30;;;;;;;11.27;8.50;;;26.90;99.90;;;;;;12388024;28;21067;-41
2021/06/18 18:57:32;;;;;;;13.40;8.63;;;27.00;99.90;;;;;;12388635;28;20058;-40
2021/06/18 19:03:34;;;;;;;14.75;9.23;;;26.70;99.90;;;;;;12387023;28;20116;-40
2021/06/18 19:09:36;;;;;;;13.18;9.48;;;26.50;99.90;;;;;;12390238;28;20081;-40
2021/06/18 19:15:38;;;;;;;13.57;9.17;;;26.70;99.90;;;;;;12384495;28;20042;-40
2021/06/18 19:21:40;;;;;;;10.27;9.07;;;26.80;99.90;;;;;;12389885;28;20042;-40
2021/06/18 19:27:43;;;;;;;12.07;9.02;;;26.30;99.90;;;;;;12390419;28;20050;-40
2021/06/18 19:33:45;;;;;;;15.10;9.60;;;26.50;99.90;;;;;;12391830;28;20046;-40
2021/06/18 19:39:47;;;;;;;11.53;9.60;;;26.40;99.90;;;;;;12394272;28;20050;-39
2021/06/18 19:45:49;;;;;;;13.40;9.95;;;26.30;99.90;;;;;;12390194;28;20045;-41
2021/06/18 19:51:53;;;;;;;15.05;10.00;;;26.10;99.90;;;;;;12387195;28;20401;-41
2021/06/18 19:57:55;;;;;;;11.18;8.00;;;25.80;99.90;;;;;;12388358;28;20145;-41
2021/06/18 20:03:57;;;;;;;10.32;7.68;;;25.60;99.90;;;;;;12384444;28;20107;-40
2021/06/18 20:09:58;;;;;;;11.70;7.63;;;25.60;99.90;;;;;;12388304;28;20133;-41
2021/06/18 20:16:01;;;;;;;11.40;6.80;;;25.60;99.90;;;;;;12387823;28;20137;-40
2021/06/18 20:22:04;;;;;;;10.80;6.73;;;25.60;99.90;;;;;;12400361;28;20088;-40
2021/06/18 20:28:08;;;;;;;11.18;7.20;;;25.60;99.90;;;;;;12384746;28;20057;-41
2021/06/18 20:34:10;;;;;;;13.05;6.80;;;25.60;99.90;;;;;;12386804;28;20046;-41
2021/06/18 20:40:16;;;;;;;9.20;7.00;;;25.60;99.90;;;;;;12389465;28;20060;-40
2021/06/18 20:46:20;;;;;;;10.85;7.03;;;25.30;99.90;;;;;;12385967;28;20058;-40
2021/06/18 20:52:22;;;;;;;9.23;7.03;;;25.20;99.90;;;;;;12392630;28;20088;-40
2021/06/18 20:58:24;;;;;;;11.48;7.13;;;25.00;99.90;;;;;;12390019;28;20443;-40
2021/06/18 21:04:26;;;;;;;14.00;6.85;;;25.00;99.90;;;;;;12394927;28;20133;-40
2021/06/18 21:10:28;;;;;;;12.25;6.85;;;25.10;99.90;;;;;;12399870;28;20054;-40
2021/06/18 21:16:30;;;;;;;10.90;6.82;;;25.30;99.90;;;;;;12390303;28;20177;-40
2021/06/18 21:22:32;;;;;;;9.82;7.63;;;25.20;99.90;;;;;;12402247;28;20141;-40
2021/06/18 21:28:34;;;;;;;14.63;7.55;;;25.00;99.90;;;;;;12395905;28;20052;-40
2021/06/18 21:34:36;;;;;;;10.18;6.88;;;24.90;99.90;;;;;;12397996;28;20194;-40
2021/06/18 21:40:37;;;;;;;15.65;7.50;;;24.60;99.90;;;;;;12397517;28;20948;-40
2021/06/18 21:46:39;;;;;;;10.77;7.55;;;24.60;99.90;;;;;;12398155;28;20115;-39
2021/06/18 21:52:42;;;;;;;10.48;7.50;;;24.60;99.90;;;;;;12398405;28;20049;-40
2021/06/18 21:58:43;;;;;;;10.30;6.90;;;24.60;99.90;;;;;;12392540;28;20054;-40
2021/06/18 22:04:46;;;;;;;10.63;7.05;;;24.60;99.90;;;;;;12433714;28;20140;-39
2021/06/18 22:10:48;;;;;;;10.25;7.13;;;24.70;99.90;;;;;;12441731;28;20440;-39
2021/06/18 22:16:50;;;;;;;12.87;6.83;;;24.70;99.90;;;;;;12392572;28;20101;-39
2021/06/18 22:22:53;;;;;;;14.70;7.25;;;24.70;99.90;;;;;;12387827;28;20057;-39
2021/06/18 22:28:56;;;;;;;11.02;6.82;;;24.80;99.90;;;;;;12387225;28;20042;-40
2021/06/18 22:34:58;;;;;;;13.90;10.40;;;24.90;99.90;;;;;;12389517;28;20050;-39
2021/06/18 22:41:00;;;;;;;14.50;11.02;;;25.00;99.90;;;;;;12398816;28;20168;-41
2021/06/18 22:47:02;;;;;;;14.20;11.45;;;25.00;99.90;;;;;;12392588;28;20042;-40
2021/06/18 22:53:07;;;;;;;18.07;11.57;;;24.90;99.90;;;;;;12388248;28;20548;-39
2021/06/18 22:59:09;;;;;;;16.33;10.77;;;24.70;99.90;;;;;;12395969;28;20050;-39
2021/06/18 23:05:12;;;;;;;11.27;8.07;;;24.60;99.90;;;;;;12387608;28;20041;-40
2021/06/18 23:11:16;;;;;;;11.90;7.18;;;24.20;99.90;;;;;;12391628;28;20045;-39
2021/06/18 23:17:18;;;;;;;14.05;7.00;;;24.20;99.90;;;;;;12387769;28;20117;-41
2021/06/18 23:23:20;;;;;;;14.68;7.13;;;24.30;99.90;;;;;;12389119;28;20062;-39
2021/06/18 23:29:22;;;;;;;9.90;7.35;;;24.40;99.90;;;;;;12387818;28;20042;-40
2021/06/18 23:35:25;;;;;;;10.18;6.93;;;24.50;99.90;;;;;;12387071;28;20045;-40
2021/06/18 23:41:27;;;;;;;15.80;8.52;;;24.60;99.90;;;;;;12392457;28;20046;-39
2021/06/18 23:47:29;;;;;;;15.93;8.30;;;24.00;99.90;;;;;;12386732;28;20446;-40
2021/06/18 23:53:31;;;;;;;15.57;8.65;;;23.60;99.90;;;;;;12385760;28;20058;-39
2021/06/18 23:59:34;;;;;;;14.60;7.97;;;23.80;99.90;;;;;;12390161;28;20441;-40
